createdAt,value
2022-11-03T00:00:56.819Z,83.98
2022-11-03T00:01:56.891Z,84.08
2022-11-03T00:02:56.778Z,83.57
2022-11-03T00:03:56.697Z,83.16
2022-11-03T00:04:56.667Z,82.96
2022-11-03T00:05:56.611Z,83.98
2022-11-03T00:06:56.573Z,83.87
2022-11-03T00:07:56.530Z,83.78
2022-11-03T00:08:56.493Z,83.98
2022-11-03T00:09:56.449Z,83.26
2022-11-03T00:10:56.419Z,84.18
2022-11-03T00:11:56.372Z,83.23
2022-11-03T00:12:56.326Z,83.98
2022-11-03T00:13:56.286Z,83.98
2022-11-03T00:14:56.244Z,84.28
2022-11-03T00:15:56.203Z,83.87
2022-11-03T00:16:56.179Z,84.08
2022-11-03T00:17:56.121Z,84.18
2022-11-03T00:18:56.082Z,84.39
2022-11-03T00:19:56.039Z,84.80
2022-11-03T00:20:56.000Z,84.69
2022-11-03T00:21:55.960Z,84.49
2022-11-03T00:22:55.930Z,84.39
2022-11-03T00:23:55.875Z,84.39
2022-11-03T00:24:55.838Z,84.90
2022-11-03T00:25:55.797Z,84.39
2022-11-03T00:26:55.755Z,85.41
2022-11-03T00:27:55.737Z,85.21
2022-11-03T00:28:55.682Z,85.24
2022-11-03T00:29:55.629Z,85.04
2022-11-03T00:30:55.593Z,85.21
2022-11-03T00:31:55.551Z,85.45
2022-11-03T00:32:55.513Z,85.00
2022-11-03T00:33:55.471Z,85.92
2022-11-03T00:34:55.442Z,85.82
2022-11-03T00:35:55.382Z,85.41
2022-11-03T00:36:55.345Z,85.75
2022-11-03T00:37:55.302Z,85.30
2022-11-03T00:38:55.265Z,85.30
2022-11-03T00:39:55.223Z,85.00
2022-11-03T00:40:55.200Z,85.00
2022-11-03T00:41:55.150Z,85.41
2022-11-03T00:42:55.101Z,85.65
2022-11-03T00:43:55.062Z,85.00
2022-11-03T00:44:55.020Z,85.45
2022-11-03T00:45:54.977Z,85.41
2022-11-03T00:46:54.938Z,85.51
2022-11-03T00:47:54.943Z,86.16
2022-11-03T00:48:54.860Z,86.02
2022-11-03T00:49:54.813Z,86.16
2022-11-03T00:50:54.774Z,86.57
2022-11-03T00:51:54.731Z,86.36
2022-11-03T00:52:54.702Z,86.53
2022-11-03T00:53:54.652Z,86.36
2022-11-03T00:54:55.562Z,86.36
2022-11-03T00:55:54.569Z,86.22
2022-11-03T00:56:54.530Z,86.33
2022-11-03T00:57:54.494Z,86.16
2022-11-03T00:58:54.447Z,86.47
2022-11-03T00:59:54.404Z,86.26
2022-11-03T01:00:54.405Z,86.57
2022-11-03T01:01:54.419Z,85.75
2022-11-03T01:02:54.285Z,86.53
2022-11-03T01:03:54.243Z,87.49
2022-11-03T01:04:54.201Z,86.33
2022-11-03T01:05:54.159Z,86.26
2022-11-03T01:06:54.130Z,86.88
2022-11-03T01:07:54.108Z,86.77
2022-11-03T01:08:54.039Z,85.92
2022-11-03T01:09:53.999Z,86.53
2022-11-03T01:10:53.956Z,87.04
2022-11-03T01:11:53.928Z,86.22
2022-11-03T01:12:53.878Z,86.94
2022-11-03T01:13:53.834Z,86.88
2022-11-03T01:14:53.794Z,88.00
2022-11-03T01:15:53.751Z,87.29
2022-11-03T01:16:53.718Z,87.29
2022-11-03T01:17:53.681Z,87.79
2022-11-03T01:18:53.629Z,87.38
2022-11-03T01:19:53.586Z,87.29
2022-11-03T01:20:53.549Z,87.70
2022-11-03T01:21:53.506Z,87.49
2022-11-03T01:22:53.480Z,87.38
2022-11-03T01:23:53.424Z,88.10
2022-11-03T01:24:53.389Z,87.49
2022-11-03T01:25:53.341Z,87.29
2022-11-03T01:26:53.303Z,87.79
2022-11-03T01:27:53.297Z,87.79
2022-11-03T01:28:53.235Z,87.79
2022-11-03T01:29:53.178Z,87.90
2022-11-03T01:30:53.143Z,87.63
2022-11-03T01:31:53.098Z,87.63
2022-11-03T01:32:53.058Z,88.20
2022-11-03T01:33:53.015Z,88.14
2022-11-03T01:34:52.993Z,88.20
2022-11-03T01:35:52.932Z,88.35
2022-11-03T01:36:52.892Z,89.32
2022-11-03T01:37:52.850Z,88.20
2022-11-03T01:38:52.818Z,88.51
2022-11-03T01:39:52.769Z,87.94
2022-11-03T01:40:52.733Z,88.51
2022-11-03T01:41:52.685Z,88.14
2022-11-03T01:42:52.647Z,89.17
2022-11-03T01:43:52.608Z,88.61
2022-11-03T01:44:52.576Z,88.76
2022-11-03T01:45:52.523Z,89.78
2022-11-03T01:46:52.488Z,89.26
2022-11-03T01:47:52.489Z,89.37
2022-11-03T01:48:52.403Z,89.67
2022-11-03T01:49:52.360Z,89.88
2022-11-03T01:50:52.329Z,90.08
2022-11-03T01:51:52.305Z,88.96
2022-11-03T01:52:52.240Z,90.80
2022-11-03T01:53:52.199Z,89.58
2022-11-03T01:54:52.156Z,89.06
2022-11-03T01:55:52.130Z,90.19
2022-11-03T01:56:52.076Z,89.78
2022-11-03T01:57:52.032Z,89.67
2022-11-03T01:58:51.991Z,89.88
2022-11-03T01:59:51.948Z,90.29
2022-11-03T02:00:51.988Z,90.49
2022-11-03T02:01:51.984Z,90.19
2022-11-03T02:02:51.828Z,90.19
2022-11-03T02:03:51.785Z,89.88
2022-11-03T02:04:51.746Z,90.08
2022-11-03T02:05:51.715Z,90.39
2022-11-03T02:06:51.662Z,91.15
2022-11-03T02:07:51.621Z,91.05
2022-11-03T02:08:51.580Z,90.84
2022-11-03T02:09:51.535Z,90.64
2022-11-03T02:10:51.515Z,90.49
2022-11-03T02:11:51.456Z,90.90
2022-11-03T02:12:51.417Z,90.53
2022-11-03T02:13:51.379Z,91.11
2022-11-03T02:14:51.332Z,91.15
2022-11-03T02:15:51.293Z,91.46
2022-11-03T02:16:51.270Z,91.15
2022-11-03T02:17:51.208Z,91.00
2022-11-03T02:18:51.169Z,91.05
2022-11-03T02:19:51.128Z,91.05
2022-11-03T02:20:51.097Z,91.66
2022-11-03T02:21:51.048Z,90.70
2022-11-03T02:22:51.032Z,90.80
2022-11-03T02:23:50.965Z,91.56
2022-11-03T02:24:53.998Z,91.15
2022-11-03T02:25:50.883Z,91.66
2022-11-03T02:26:50.847Z,92.27
2022-11-03T02:27:50.801Z,92.27
2022-11-03T02:28:50.772Z,92.23
2022-11-03T02:29:50.759Z,92.07
2022-11-03T02:30:50.680Z,92.23
2022-11-03T02:31:50.633Z,91.96
2022-11-03T02:32:50.595Z,92.13
2022-11-03T02:33:50.553Z,92.47
2022-11-03T02:34:50.524Z,91.52
2022-11-03T02:35:50.472Z,91.86
2022-11-03T02:36:50.432Z,92.13
2022-11-03T02:37:50.398Z,92.17
2022-11-03T02:38:50.350Z,92.07
2022-11-03T02:39:50.321Z,92.13
2022-11-03T02:40:50.267Z,92.37
2022-11-03T02:41:50.225Z,92.17
2022-11-03T02:42:50.183Z,92.43
2022-11-03T02:43:50.139Z,92.37
2022-11-03T02:44:50.102Z,92.54
2022-11-03T02:45:50.074Z,92.43
2022-11-03T02:46:50.021Z,92.23
2022-11-03T02:47:49.979Z,92.54
2022-11-03T02:48:49.937Z,92.33
2022-11-03T02:49:49.936Z,92.23
2022-11-03T02:50:49.856Z,92.54
2022-11-03T02:51:49.826Z,92.23
2022-11-03T02:52:49.772Z,92.33
2022-11-03T02:53:49.730Z,92.33
2022-11-03T02:54:49.693Z,92.84
2022-11-03T02:55:49.648Z,92.74
2022-11-03T02:56:49.605Z,92.54
2022-11-03T02:57:49.576Z,92.23
2022-11-03T02:58:49.529Z,92.33
2022-11-03T02:59:49.485Z,92.74
2022-11-03T03:00:49.490Z,92.43
2022-11-03T03:01:49.557Z,92.29
2022-11-03T03:02:49.373Z,92.43
2022-11-03T03:03:49.321Z,92.59
2022-11-03T03:04:49.284Z,92.29
2022-11-03T03:05:49.235Z,92.43
2022-11-03T03:06:49.198Z,92.54
2022-11-03T03:07:49.167Z,92.33
2022-11-03T03:08:49.117Z,92.13
2022-11-03T03:09:49.072Z,92.33
2022-11-03T03:10:49.034Z,92.59
2022-11-03T03:11:48.991Z,92.08
2022-11-03T03:12:48.951Z,92.29
2022-11-03T03:13:48.929Z,92.33
2022-11-03T03:14:48.868Z,92.49
2022-11-03T03:15:48.827Z,92.59
2022-11-03T03:16:48.787Z,92.39
2022-11-03T03:17:48.756Z,92.39
2022-11-03T03:18:48.704Z,92.19
2022-11-03T03:19:48.662Z,92.39
2022-11-03T03:20:57.583Z,92.08
2022-11-03T03:21:48.580Z,92.90
2022-11-03T03:22:48.544Z,92.59
2022-11-03T03:23:48.498Z,92.59
2022-11-03T03:24:48.460Z,92.29
2022-11-03T03:25:48.432Z,92.39
2022-11-03T03:26:48.375Z,91.98
2022-11-03T03:27:48.334Z,92.29
2022-11-03T03:28:48.294Z,92.35
2022-11-03T03:29:48.254Z,92.29
2022-11-03T03:30:48.210Z,92.35
2022-11-03T03:31:48.184Z,92.39
2022-11-03T03:32:48.130Z,91.98
2022-11-03T03:33:48.286Z,93.00
2022-11-03T03:34:48.053Z,92.65
2022-11-03T03:35:48.007Z,92.59
2022-11-03T03:36:47.968Z,92.90
2022-11-03T03:37:47.937Z,92.39
2022-11-03T03:38:47.893Z,92.69
2022-11-03T03:39:47.842Z,92.80
2022-11-03T03:40:47.802Z,92.45
2022-11-03T03:41:47.763Z,92.86
2022-11-03T03:42:47.730Z,92.55
2022-11-03T03:43:47.700Z,92.80
2022-11-03T03:44:47.639Z,93.51
2022-11-03T03:45:47.597Z,92.86
2022-11-03T03:46:47.554Z,92.90
2022-11-03T03:47:47.531Z,93.16
2022-11-03T03:48:47.474Z,92.76
2022-11-03T03:49:47.433Z,93.31
2022-11-03T03:50:47.392Z,92.76
2022-11-03T03:51:47.351Z,92.90
2022-11-03T03:52:47.312Z,93.10
2022-11-03T03:53:47.279Z,93.21
2022-11-03T03:54:47.226Z,92.86
2022-11-03T03:55:47.187Z,92.96
2022-11-03T03:56:47.144Z,93.37
2022-11-03T03:57:47.104Z,93.31
2022-11-03T03:58:47.067Z,92.86
2022-11-03T03:59:47.035Z,92.76
2022-11-03T04:00:47.078Z,93.26
2022-11-03T04:01:47.078Z,93.06
2022-11-03T04:02:46.900Z,92.96
2022-11-03T04:03:46.862Z,92.76
2022-11-03T04:04:46.825Z,93.16
2022-11-03T04:05:46.785Z,93.16
2022-11-03T04:06:46.747Z,93.00
2022-11-03T04:07:46.701Z,92.96
2022-11-03T04:08:46.655Z,92.76
2022-11-03T04:09:46.615Z,92.96
2022-11-03T04:10:46.579Z,93.71
2022-11-03T04:11:46.536Z,93.67
2022-11-03T04:12:46.503Z,93.82
2022-11-03T04:13:46.450Z,93.71
2022-11-03T04:14:46.408Z,93.62
2022-11-03T04:15:46.369Z,94.02
2022-11-03T04:16:46.326Z,93.41
2022-11-03T04:17:49.182Z,93.51
2022-11-03T04:18:46.255Z,94.12
2022-11-03T04:19:46.205Z,93.82
2022-11-03T04:20:46.162Z,93.88
2022-11-03T04:21:46.122Z,94.12
2022-11-03T04:22:46.082Z,93.31
2022-11-03T04:23:46.045Z,93.21
2022-11-03T04:24:46.013Z,94.12
2022-11-03T04:25:45.959Z,93.41
2022-11-03T04:26:45.935Z,93.31
2022-11-03T04:27:45.878Z,93.82
2022-11-03T04:28:45.834Z,93.82
2022-11-03T04:29:45.796Z,93.21
2022-11-03T04:30:45.763Z,93.41
2022-11-03T04:31:45.714Z,93.41
2022-11-03T04:32:45.676Z,93.00
2022-11-03T04:33:45.630Z,93.47
2022-11-03T04:34:45.589Z,93.82
2022-11-03T04:35:45.550Z,94.02
2022-11-03T04:36:45.519Z,93.51
2022-11-03T04:37:48.411Z,93.41
2022-11-03T04:38:45.428Z,93.62
2022-11-03T04:39:45.424Z,93.71
2022-11-03T04:40:47.104Z,93.62
2022-11-03T04:41:45.306Z,93.47
2022-11-03T04:42:45.274Z,94.08
2022-11-03T04:43:45.221Z,93.51
2022-11-03T04:44:45.187Z,93.62
2022-11-03T04:45:45.142Z,94.02
2022-11-03T04:46:45.100Z,93.62
2022-11-03T04:47:45.070Z,94.23
2022-11-03T04:48:45.019Z,94.12
2022-11-03T04:49:44.980Z,94.64
2022-11-03T04:50:46.944Z,94.84
2022-11-03T04:51:44.895Z,94.43
2022-11-03T04:52:44.865Z,94.23
2022-11-03T04:53:44.835Z,94.02
2022-11-03T04:54:44.779Z,94.02
2022-11-03T04:55:44.748Z,93.92
2022-11-03T04:56:44.691Z,94.12
2022-11-03T04:57:44.651Z,93.92
2022-11-03T04:58:44.614Z,94.23
2022-11-03T04:59:44.573Z,94.64
2022-11-03T05:00:44.577Z,94.12
2022-11-03T05:01:44.704Z,94.02
2022-11-03T05:02:44.446Z,94.23
2022-11-03T05:03:44.411Z,94.12
2022-11-03T05:04:44.362Z,94.43
2022-11-03T05:05:44.325Z,93.77
2022-11-03T05:06:44.283Z,94.18
2022-11-03T05:07:44.254Z,93.92
2022-11-03T05:08:44.200Z,93.92
2022-11-03T05:09:44.162Z,94.18
2022-11-03T05:10:44.120Z,94.18
2022-11-03T05:11:44.079Z,92.86
2022-11-03T05:12:44.037Z,93.82
2022-11-03T05:13:44.007Z,93.62
2022-11-03T05:14:43.954Z,93.47
2022-11-03T05:15:43.911Z,93.82
2022-11-03T05:16:43.873Z,93.47
2022-11-03T05:17:43.833Z,93.00
2022-11-03T05:18:43.790Z,93.26
2022-11-03T05:19:43.762Z,93.37
2022-11-03T05:20:43.708Z,93.41
2022-11-03T05:21:43.685Z,93.37
2022-11-03T05:22:43.627Z,93.62
2022-11-03T05:23:43.586Z,93.88
2022-11-03T05:24:43.544Z,93.41
2022-11-03T05:25:43.514Z,93.51
2022-11-03T05:26:43.460Z,93.98
2022-11-03T05:27:43.422Z,93.37
2022-11-03T05:28:43.384Z,93.57
2022-11-03T05:29:43.352Z,93.77
2022-11-03T05:30:43.310Z,93.57
2022-11-03T05:31:43.265Z,93.67
2022-11-03T05:32:43.219Z,93.57
2022-11-03T05:33:43.185Z,93.16
2022-11-03T05:34:43.138Z,93.57
2022-11-03T05:35:43.094Z,93.47
2022-11-03T05:36:43.067Z,93.71
2022-11-03T05:37:43.015Z,93.77
2022-11-03T05:38:42.976Z,93.57
2022-11-03T05:39:42.933Z,93.57
2022-11-03T05:40:42.892Z,93.06
2022-11-03T05:41:42.851Z,93.47
2022-11-03T05:42:42.825Z,94.08
2022-11-03T05:43:42.783Z,93.37
2022-11-03T05:44:42.726Z,93.77
2022-11-03T05:45:42.691Z,93.47
2022-11-03T05:46:42.645Z,93.47
2022-11-03T05:47:42.607Z,93.88
2022-11-03T05:48:42.576Z,93.98
2022-11-03T05:49:42.526Z,93.26
2022-11-03T05:50:42.479Z,93.57
2022-11-03T05:51:42.442Z,93.77
2022-11-03T05:52:42.401Z,93.67
2022-11-03T05:53:42.364Z,93.37
2022-11-03T05:54:42.332Z,92.65
2022-11-03T05:55:42.283Z,93.26
2022-11-03T05:56:42.235Z,93.47
2022-11-03T05:57:42.200Z,92.96
2022-11-03T05:58:42.162Z,93.47
2022-11-03T05:59:42.118Z,93.16
2022-11-03T06:00:48.153Z,92.86
2022-11-03T06:01:42.161Z,92.96
2022-11-03T06:02:42.037Z,93.16
2022-11-03T06:03:41.950Z,93.43
2022-11-03T06:04:41.930Z,93.57
2022-11-03T06:05:41.872Z,93.57
2022-11-03T06:06:41.827Z,93.67
2022-11-03T06:07:41.789Z,93.47
2022-11-03T06:08:44.958Z,93.26
2022-11-03T06:09:41.714Z,93.47
2022-11-03T06:10:41.665Z,93.67
2022-11-03T06:11:41.628Z,93.26
2022-11-03T06:12:41.588Z,93.06
2022-11-03T06:13:41.541Z,93.88
2022-11-03T06:14:41.516Z,93.26
2022-11-03T06:15:41.476Z,92.91
2022-11-03T06:16:41.421Z,92.86
2022-11-03T06:17:41.380Z,93.06
2022-11-03T06:18:41.340Z,93.16
2022-11-03T06:19:41.297Z,93.06
2022-11-03T06:20:41.275Z,93.57
2022-11-03T06:21:44.566Z,93.06
2022-11-03T06:22:41.174Z,93.98
2022-11-03T06:23:41.136Z,93.67
2022-11-03T06:24:41.106Z,93.26
2022-11-03T06:25:41.051Z,93.26
2022-11-03T06:26:41.010Z,93.47
2022-11-03T06:27:40.969Z,93.32
2022-11-03T06:28:40.941Z,93.06
2022-11-03T06:29:40.889Z,93.37
2022-11-03T06:31:40.809Z,93.32
2022-11-03T06:32:40.771Z,93.37
2022-11-03T06:33:40.723Z,93.32
2022-11-03T06:34:40.699Z,93.26
2022-11-03T06:35:40.645Z,93.22
2022-11-03T06:36:40.600Z,93.43
2022-11-03T06:37:40.560Z,93.12
2022-11-03T06:38:40.519Z,92.81
2022-11-03T06:39:40.483Z,92.50
2022-11-03T06:40:40.450Z,93.22
2022-11-03T06:41:40.396Z,93.22
2022-11-03T06:42:40.356Z,93.22
2022-11-03T06:43:40.315Z,93.22
2022-11-03T06:44:40.276Z,92.71
2022-11-03T06:45:40.236Z,93.12
2022-11-03T06:46:40.239Z,93.32
2022-11-03T06:47:40.162Z,93.22
2022-11-03T06:48:40.111Z,93.02
2022-11-03T06:49:40.071Z,93.02
2022-11-03T06:50:44.766Z,92.91
2022-11-03T06:51:39.990Z,92.81
2022-11-03T06:52:40.005Z,93.12
2022-11-03T06:53:39.912Z,92.91
2022-11-03T06:54:39.864Z,92.71
2022-11-03T06:55:39.827Z,93.12
2022-11-03T06:56:39.784Z,92.81
2022-11-03T06:57:39.754Z,93.02
2022-11-03T06:58:39.713Z,92.91
2022-11-03T06:59:39.662Z,93.02
2022-11-03T07:00:41.131Z,93.22
2022-11-03T07:01:39.676Z,92.91
2022-11-03T07:02:39.638Z,92.71
2022-11-03T07:03:39.511Z,92.91
2022-11-03T07:04:39.459Z,93.22
2022-11-03T07:05:39.416Z,93.52
2022-11-03T07:06:39.377Z,93.22
2022-11-03T07:07:39.349Z,92.46
2022-11-03T07:08:39.308Z,92.46
2022-11-03T07:09:39.254Z,92.46
2022-11-03T07:10:39.213Z,92.81
2022-11-03T07:11:39.176Z,92.61
2022-11-03T07:12:39.132Z,92.16
2022-11-03T07:13:39.099Z,91.85
2022-11-03T07:14:39.071Z,92.26
2022-11-03T07:15:39.018Z,92.77
2022-11-03T07:16:38.986Z,92.16
2022-11-03T07:17:38.929Z,92.05
2022-11-03T07:18:38.974Z,92.26
2022-11-03T07:19:38.848Z,92.16
2022-11-03T07:20:38.816Z,91.96
2022-11-03T07:21:38.771Z,92.26
2022-11-03T07:22:38.729Z,91.65
2022-11-03T07:23:40.194Z,92.05
2022-11-03T07:24:38.646Z,92.01
2022-11-03T07:25:38.602Z,91.81
2022-11-03T07:26:38.579Z,91.40
2022-11-03T07:27:38.522Z,91.20
2022-11-03T07:28:38.487Z,90.69
2022-11-03T07:29:38.442Z,90.79
2022-11-03T07:30:38.401Z,90.14
2022-11-03T07:31:38.373Z,90.34
2022-11-03T07:32:38.332Z,89.89
2022-11-03T07:33:38.281Z,89.34
2022-11-03T07:34:38.237Z,88.48
2022-11-03T07:36:08.408Z,86.71
2022-11-03T07:36:38.248Z,86.37
2022-11-03T07:37:38.122Z,85.55
2022-11-03T07:38:38.082Z,85.31
2022-11-03T07:39:38.039Z,84.77
2022-11-03T07:40:38.001Z,82.90
2022-11-03T07:41:37.958Z,81.85
2022-11-03T07:42:37.932Z,81.60
2022-11-03T07:43:37.879Z,81.34
2022-11-03T07:44:37.846Z,81.13
2022-11-03T07:45:37.803Z,81.71
2022-11-03T07:46:37.766Z,80.96
2022-11-03T07:47:37.723Z,80.82
2022-11-03T07:48:37.704Z,79.91
2022-11-03T07:49:37.644Z,78.69
2022-11-03T07:50:37.608Z,80.45
2022-11-03T07:51:37.568Z,80.79
2022-11-03T07:52:37.529Z,81.60
2022-11-03T07:53:37.490Z,81.54
2022-11-03T07:54:37.460Z,81.13
2022-11-03T07:55:37.411Z,81.54
2022-11-03T07:56:37.458Z,82.84
2022-11-03T07:57:37.335Z,83.54
2022-11-03T07:58:37.297Z,84.20
2022-11-03T07:59:37.261Z,83.79
2022-11-03T08:00:37.246Z,84.26
2022-11-03T08:01:37.295Z,84.05
2022-11-03T08:02:37.172Z,83.34
2022-11-03T08:03:37.105Z,83.24
2022-11-03T08:04:37.072Z,84.05
2022-11-03T08:05:37.036Z,84.26
2022-11-03T08:06:37.000Z,83.14
2022-11-03T08:07:36.950Z,83.34
2022-11-03T08:08:36.914Z,84.66
2022-11-03T08:09:36.875Z,83.89
2022-11-03T08:10:36.843Z,84.77
2022-11-03T08:11:36.799Z,85.35
2022-11-03T08:12:36.776Z,85.80
2022-11-03T08:13:36.718Z,85.70
2022-11-03T08:14:36.681Z,86.61
2022-11-03T08:15:36.642Z,86.51
2022-11-03T08:16:36.605Z,86.61
2022-11-03T08:17:36.564Z,86.51
2022-11-03T08:18:36.537Z,87.12
2022-11-03T08:19:36.496Z,86.71
2022-11-03T08:20:36.450Z,87.23
2022-11-03T08:21:36.407Z,87.02
2022-11-03T08:22:36.370Z,87.32
2022-11-03T08:23:36.331Z,87.32
2022-11-03T08:24:36.304Z,87.43
2022-11-03T08:25:36.253Z,87.02
2022-11-03T08:26:36.214Z,86.71
2022-11-03T08:27:36.172Z,86.82
2022-11-03T08:28:36.180Z,86.92
2022-11-03T08:29:36.108Z,86.82
2022-11-03T08:30:36.056Z,87.02
2022-11-03T08:31:36.018Z,86.92
2022-11-03T08:32:35.981Z,86.57
2022-11-03T08:33:35.938Z,86.61
2022-11-03T08:34:35.902Z,86.68
2022-11-03T08:35:35.874Z,86.37
2022-11-03T08:36:35.839Z,86.47
2022-11-03T08:37:35.790Z,86.98
2022-11-03T08:38:35.789Z,86.07
2022-11-03T08:39:35.700Z,86.07
2022-11-03T08:40:35.663Z,86.88
2022-11-03T08:41:35.620Z,86.68
2022-11-03T08:42:35.595Z,85.66
2022-11-03T08:43:35.542Z,86.22
2022-11-03T08:44:35.504Z,85.52
2022-11-03T08:45:35.464Z,86.22
2022-11-03T08:46:35.427Z,86.07
2022-11-03T08:47:35.386Z,86.07
2022-11-03T08:48:35.360Z,86.98
2022-11-03T08:49:35.334Z,87.69
2022-11-03T08:50:35.270Z,86.02
2022-11-03T08:51:37.837Z,86.68
2022-11-03T08:52:35.200Z,85.86
2022-11-03T08:53:35.162Z,85.41
2022-11-03T08:54:35.112Z,86.37
2022-11-03T08:55:35.073Z,86.33
2022-11-03T08:56:35.035Z,85.41
2022-11-03T08:57:34.996Z,86.02
2022-11-03T08:58:34.957Z,86.22
2022-11-03T08:59:34.925Z,86.33
2022-11-03T09:00:39.713Z,85.76
2022-11-03T09:01:34.896Z,86.33
2022-11-03T09:02:34.849Z,86.63
2022-11-03T09:03:34.883Z,86.22
2022-11-03T09:04:34.721Z,86.02
2022-11-03T09:05:34.700Z,86.22
2022-11-03T09:06:34.648Z,86.43
2022-11-03T09:10:36.960Z,85.78
2022-11-03T09:11:34.452Z,85.68
2022-11-03T09:12:34.411Z,85.27
2022-11-03T09:13:34.365Z,84.97
2022-11-03T09:14:34.330Z,85.24
2022-11-03T09:15:34.290Z,84.52
2022-11-03T09:16:34.268Z,85.24
2022-11-03T09:17:34.212Z,84.93
2022-11-03T09:18:34.174Z,84.48
2022-11-03T09:19:34.230Z,84.38
2022-11-03T09:20:34.110Z,83.37
2022-11-03T09:21:41.710Z,83.57
2022-11-03T09:22:34.021Z,83.98
2022-11-03T09:23:33.991Z,83.47
2022-11-03T09:24:33.941Z,83.06
2022-11-03T09:25:33.901Z,83.67
2022-11-03T09:26:33.872Z,83.63
2022-11-03T09:27:33.825Z,83.03
2022-11-03T09:28:33.803Z,82.92
2022-11-03T09:29:58.458Z,82.45
2022-11-03T09:30:33.716Z,83.17
2022-11-03T09:31:33.669Z,82.82
2022-11-03T09:32:33.629Z,82.11
2022-11-03T09:33:33.589Z,82.21
2022-11-03T09:34:33.566Z,82.66
2022-11-03T09:35:33.511Z,83.17
2022-11-03T09:36:33.478Z,82.66
2022-11-03T09:37:33.435Z,82.31
2022-11-03T09:38:33.401Z,83.23
2022-11-03T09:39:33.381Z,82.45
2022-11-03T09:40:33.369Z,83.57
2022-11-03T09:41:56.024Z,82.66
2022-11-03T09:42:33.270Z,82.01
2022-11-03T09:43:33.204Z,81.50
2022-11-03T09:44:33.167Z,82.56
2022-11-03T09:45:33.126Z,81.20
2022-11-03T09:46:33.104Z,81.40
2022-11-03T09:47:33.051Z,81.26
2022-11-03T09:48:33.018Z,81.44
2022-11-03T09:49:32.973Z,81.40
2022-11-03T09:50:32.936Z,81.81
2022-11-03T09:51:32.895Z,82.05
2022-11-03T09:52:32.870Z,82.31
2022-11-03T09:53:32.825Z,81.54
2022-11-03T09:54:32.782Z,82.66
2022-11-03T09:55:32.740Z,82.05
2022-11-03T09:56:32.702Z,82.31
2022-11-03T09:57:32.663Z,81.81
2022-11-03T09:58:32.637Z,81.74
2022-11-03T09:59:32.588Z,80.69
2022-11-03T10:00:32.550Z,80.39
2022-11-03T10:01:32.661Z,81.50
2022-11-03T10:02:32.558Z,80.96
2022-11-03T10:03:32.434Z,81.16
2022-11-03T10:04:32.413Z,80.76
2022-11-03T10:05:32.367Z,80.86
2022-11-03T10:06:32.317Z,80.99
2022-11-03T10:07:32.283Z,80.90
2022-11-03T10:08:32.249Z,80.79
2022-11-03T10:09:32.203Z,81.40
2022-11-03T10:10:32.184Z,80.90
2022-11-03T10:11:32.125Z,81.20
2022-11-03T10:12:32.090Z,80.79
2022-11-03T10:13:32.063Z,80.86
2022-11-03T10:14:32.016Z,80.90
2022-11-03T10:15:31.971Z,80.86
2022-11-03T10:16:31.942Z,79.98
2022-11-03T10:17:31.899Z,80.99
2022-11-03T10:18:31.861Z,79.85
2022-11-03T10:19:31.817Z,80.39
2022-11-03T10:20:31.788Z,80.90
2022-11-03T10:21:31.739Z,80.19
2022-11-03T10:22:31.701Z,79.47
2022-11-03T10:23:31.663Z,78.93
2022-11-03T10:24:31.627Z,79.13
2022-11-03T10:25:31.586Z,79.44
2022-11-03T10:26:31.564Z,79.03
2022-11-03T10:27:31.508Z,79.13
2022-11-03T10:28:31.472Z,78.73
2022-11-03T10:29:33.416Z,79.03
2022-11-03T10:30:36.265Z,79.20
2022-11-03T10:31:31.356Z,78.93
2022-11-03T10:32:31.332Z,79.54
2022-11-03T10:33:31.282Z,79.54
2022-11-03T10:34:31.252Z,79.24
2022-11-03T10:35:31.201Z,80.05
2022-11-03T10:36:31.195Z,79.64
2022-11-03T10:37:31.136Z,79.64
2022-11-03T10:38:31.091Z,79.30
2022-11-03T10:39:31.048Z,79.54
2022-11-03T10:40:47.267Z,79.34
2022-11-03T10:41:30.978Z,79.20
2022-11-03T10:42:35.276Z,79.30
2022-11-03T10:43:30.907Z,78.79
2022-11-03T10:44:30.872Z,77.95
2022-11-03T10:45:30.816Z,78.15
2022-11-03T10:46:51.029Z,77.71
2022-11-03T10:47:30.743Z,77.34
2022-11-03T10:48:30.706Z,77.30
2022-11-03T10:49:30.676Z,76.59
2022-11-03T10:50:30.626Z,77.20
2022-11-03T10:51:30.589Z,76.79
2022-11-03T10:52:30.598Z,76.29
2022-11-03T10:53:30.566Z,75.55
2022-11-03T10:54:30.476Z,76.79
2022-11-03T10:55:30.481Z,76.09
2022-11-03T10:56:30.398Z,75.89
2022-11-03T10:57:30.392Z,76.39
2022-11-03T10:58:30.327Z,77.17
2022-11-03T10:59:30.285Z,76.56
2022-11-03T11:00:30.248Z,77.20
2022-11-03T11:01:30.332Z,77.00
2022-11-03T11:02:30.400Z,76.19
2022-11-03T11:03:30.145Z,76.19
2022-11-03T11:04:30.175Z,76.59
2022-11-03T11:05:30.052Z,76.09
2022-11-03T11:06:30.026Z,76.12
2022-11-03T11:07:29.982Z,76.59
2022-11-03T11:08:30.018Z,76.23
2022-11-03T11:09:29.912Z,77.20
2022-11-03T11:10:29.876Z,75.68
2022-11-03T11:11:29.832Z,75.99
2022-11-03T11:12:29.791Z,76.59
2022-11-03T11:13:29.751Z,76.66
2022-11-03T11:14:29.727Z,75.68
2022-11-03T11:15:29.690Z,76.15
2022-11-03T11:16:29.640Z,75.55
2022-11-03T11:17:29.599Z,76.19
2022-11-03T11:18:29.680Z,75.99
2022-11-03T11:19:29.528Z,75.58
2022-11-03T11:20:29.499Z,76.26
2022-11-03T11:21:31.978Z,76.79
2022-11-03T11:22:29.412Z,75.89
2022-11-03T11:23:29.391Z,75.79
2022-11-03T11:24:29.335Z,77.30
2022-11-03T11:25:29.300Z,77.10
2022-11-03T11:26:29.269Z,75.79
2022-11-03T11:27:29.221Z,76.50
2022-11-03T11:28:29.187Z,75.58
2022-11-03T11:29:29.146Z,76.70
2022-11-03T11:30:29.111Z,76.53
2022-11-03T11:31:29.069Z,75.82
2022-11-03T11:32:29.052Z,77.34
2022-11-03T11:33:28.993Z,77.78
2022-11-03T11:34:28.956Z,77.17
2022-11-03T11:35:28.917Z,77.07
2022-11-03T11:36:28.882Z,77.07
2022-11-03T11:37:28.840Z,77.17
2022-11-03T11:38:28.814Z,77.03
2022-11-03T11:39:28.771Z,77.34
2022-11-03T11:40:28.727Z,77.14
2022-11-03T11:41:28.690Z,77.34
2022-11-03T11:42:30.440Z,77.03
2022-11-03T11:43:28.613Z,77.14
2022-11-03T11:44:28.576Z,77.54
2022-11-03T11:45:28.534Z,78.25
2022-11-03T11:46:28.497Z,78.15
2022-11-03T11:47:28.467Z,78.35
2022-11-03T11:48:28.436Z,78.05
2022-11-03T11:49:28.381Z,78.19
2022-11-03T11:50:28.352Z,78.05
2022-11-03T11:51:28.328Z,78.69
2022-11-03T11:52:28.269Z,78.08
2022-11-03T11:53:31.819Z,79.00
2022-11-03T11:54:28.205Z,77.78
2022-11-03T11:55:28.159Z,79.00
2022-11-03T11:56:28.138Z,79.03
2022-11-03T11:57:28.076Z,78.39
2022-11-03T11:58:28.036Z,78.89
2022-11-03T11:59:28.001Z,79.44
2022-11-03T12:00:27.992Z,80.05
2022-11-03T12:01:28.000Z,79.20
2022-11-03T12:02:27.886Z,79.13
2022-11-03T12:03:27.885Z,78.49
2022-11-03T12:04:27.876Z,78.83
2022-11-03T12:05:27.772Z,78.39
2022-11-03T12:06:27.752Z,79.24
2022-11-03T12:07:27.694Z,79.03
2022-11-03T12:08:27.671Z,79.03
2022-11-03T12:09:27.622Z,79.85
2022-11-03T12:10:27.573Z,79.24
2022-11-03T12:11:27.598Z,79.13
2022-11-03T12:12:27.500Z,78.83
2022-11-03T12:13:27.461Z,79.94
2022-11-03T12:14:27.420Z,79.13
2022-11-03T12:15:27.383Z,79.13
2022-11-03T12:16:27.360Z,78.93
2022-11-03T12:17:27.306Z,79.54
2022-11-03T12:18:27.265Z,78.83
2022-11-03T12:19:27.228Z,78.53
2022-11-03T12:20:27.190Z,79.24
2022-11-03T12:21:27.151Z,78.63
2022-11-03T12:22:27.125Z,78.83
2022-11-03T12:23:27.074Z,79.24
2022-11-03T12:24:27.034Z,78.89
2022-11-03T12:25:27.004Z,78.79
2022-11-03T12:26:26.958Z,79.00
2022-11-03T12:27:26.957Z,78.49
2022-11-03T12:28:26.878Z,79.60
2022-11-03T12:29:26.846Z,78.49
2022-11-03T12:30:26.804Z,78.69
2022-11-03T12:31:26.765Z,78.59
2022-11-03T12:32:34.402Z,78.19
2022-11-03T12:33:26.686Z,78.15
2022-11-03T12:34:26.650Z,79.00
2022-11-03T12:35:26.610Z,79.00
2022-11-03T12:36:26.570Z,77.98
2022-11-03T12:37:26.540Z,78.59
2022-11-03T12:38:26.503Z,77.68
2022-11-03T12:39:26.454Z,78.59
2022-11-03T12:40:26.417Z,78.79
2022-11-03T12:41:26.376Z,79.30
2022-11-03T12:42:26.339Z,79.10
2022-11-03T12:43:26.303Z,79.74
2022-11-03T12:44:26.336Z,79.44
2022-11-03T12:45:26.223Z,79.34
2022-11-03T12:46:26.183Z,79.74
2022-11-03T12:47:26.172Z,79.94
2022-11-03T12:48:26.107Z,79.44
2022-11-03T12:49:26.070Z,79.85
2022-11-03T12:50:26.042Z,79.94
2022-11-03T12:51:26.004Z,79.85
2022-11-03T12:52:25.968Z,80.55
2022-11-03T12:53:25.915Z,79.44
2022-11-03T12:54:25.874Z,79.54
2022-11-03T12:55:25.838Z,79.64
2022-11-03T12:56:25.797Z,79.34